Time;durP1;ratioP1;P1;durP2;ratioP2;P2;SDS_P1;SDS_P2;PMS_P1;PMS_P2;Temp;Humidity;BMP_temperature;BMP_pressure;BME280_temperature;BME280_humidity;BME280_pressure;Samples;Min_cycle;Max_cycle;Signal;HPM_P1;HPM_P2
2021/10/17 00:00:39;;;;;;;20.98;11.45;;;6.40;95.90;;;4.07;100.00;101049.50;5031273;28;20087;-84
2021/10/17 00:03:07;;;;;;;20.33;11.25;;;6.40;95.90;;;4.06;100.00;101058.53;5031244;28;20075;-84
2021/10/17 00:05:35;;;;;;;22.95;10.95;;;6.40;95.90;;;4.04;100.00;101059.66;5031414;28;20130;-84
2021/10/17 00:08:05;;;;;;;23.60;12.27;;;6.50;96.00;;;4.08;100.00;101066.50;5031064;28;20069;-84
2021/10/17 00:10:36;;;;;;;19.50;10.32;;;6.40;95.90;;;4.07;100.00;101054.88;5031158;28;20099;-84
2021/10/17 00:13:08;;;;;;;23.75;10.90;;;6.40;95.90;;;4.06;100.00;101063.09;5029664;28;20140;-83
2021/10/17 00:15:37;;;;;;;26.92;11.23;;;6.40;96.00;;;4.05;100.00;101055.97;5029802;28;20494;-84
2021/10/17 00:18:07;;;;;;;20.13;10.38;;;6.40;96.00;;;4.01;100.00;101059.91;5030802;28;20124;-83
2021/10/17 00:20:35;;;;;;;21.35;10.52;;;6.40;96.00;;;3.95;100.00;101063.97;5031050;28;20090;-84
2021/10/17 00:23:03;;;;;;;25.88;10.60;;;6.40;95.80;;;3.90;100.00;101060.81;5030986;28;20569;-83
2021/10/17 00:25:30;;;;;;;19.10;10.30;;;6.30;95.80;;;3.91;100.00;101067.91;5031092;28;20091;-84
2021/10/17 00:27:57;;;;;;;23.20;11.07;;;6.30;95.90;;;3.92;100.00;101075.88;5030785;28;20485;-83
2021/10/17 00:30:35;;;;;;;22.30;10.88;;;6.30;95.90;;;3.86;100.00;101079.03;5032078;28;20144;-84
2021/10/17 00:33:03;;;;;;;19.50;10.52;;;6.30;95.90;;;3.84;100.00;101081.00;5012900;28;20054;-84
2021/10/17 00:35:31;;;;;;;17.95;10.95;;;6.30;95.90;;;3.83;100.00;101067.69;5012775;28;20053;-83
2021/10/17 00:37:58;;;;;;;23.02;10.88;;;6.20;95.80;;;3.87;100.00;101077.22;5012620;28;20055;-84
2021/10/17 00:40:26;;;;;;;20.60;10.68;;;6.20;95.70;;;3.85;100.00;101082.75;5030603;28;20041;-84
2021/10/17 00:42:56;;;;;;;20.02;10.63;;;6.30;96.00;;;3.86;100.00;101080.88;5012671;28;20045;-83
2021/10/17 00:45:27;;;;;;;19.15;10.43;;;6.20;95.90;;;3.92;100.00;101083.94;5030601;28;20064;-84
2021/10/17 00:47:56;;;;;;;;;;;6.20;96.10;;;3.89;100.00;101089.56;5030752;28;20045;-84
2021/10/17 00:50:23;;;;;;;27.65;12.40;;;6.20;96.10;;;3.85;100.00;101082.75;5030457;28;19931;-84
2021/10/17 00:52:51;;;;;;;22.85;12.98;;;6.20;96.10;;;3.91;100.00;101081.38;5030463;28;20460;-84
2021/10/17 00:55:22;;;;;;;24.38;11.90;;;6.20;96.00;;;4.03;100.00;101082.19;5012610;28;20053;-84
2021/10/17 00:57:49;;;;;;;24.35;10.57;;;6.20;96.20;;;4.04;100.00;101082.06;5030100;28;20046;-84
2021/10/17 01:00:17;;;;;;;21.30;11.85;;;6.20;96.40;;;4.06;100.00;101073.84;5022458;28;20149;-84
2021/10/17 01:02:45;;;;;;;22.02;11.93;;;6.20;96.40;;;4.00;100.00;101077.03;5032086;28;20053;-84
2021/10/17 01:05:15;;;;;;;22.95;12.10;;;6.20;96.40;;;3.94;100.00;101085.63;5032355;28;20045;-84
2021/10/17 01:07:43;;;;;;;21.80;11.52;;;6.20;96.40;;;3.87;100.00;101069.16;5031943;28;20081;-84
2021/10/17 01:10:14;;;;;;;24.92;12.48;;;6.20;96.30;;;3.85;100.00;101065.72;5031936;28;20075;-84
2021/10/17 01:12:42;;;;;;;21.25;10.65;;;6.20;96.30;;;3.85;100.00;101073.81;5031883;28;20052;-84
2021/10/17 01:15:11;;;;;;;28.30;11.50;;;6.20;96.20;;;3.87;100.00;101072.69;5031845;28;20045;-84
2021/10/17 01:17:45;;;;;;;23.02;11.15;;;6.20;96.20;;;3.86;100.00;101062.03;5031502;28;20041;-84
2021/10/17 01:20:14;;;;;;;20.23;10.38;;;6.20;96.30;;;3.85;100.00;101063.88;5031823;28;20053;-84
2021/10/17 01:22:42;;;;;;;23.63;11.32;;;6.20;96.30;;;3.79;100.00;101059.03;5031874;28;20516;-84
2021/10/17 01:25:11;;;;;;;21.58;10.52;;;6.20;96.40;;;3.66;100.00;101061.03;5031498;28;20084;-84
2021/10/17 01:27:38;;;;;;;19.67;10.70;;;6.10;96.20;;;3.71;100.00;101059.66;5031260;28;20057;-84
2021/10/17 01:30:08;;;;;;;21.48;11.15;;;6.10;96.30;;;3.70;100.00;101057.09;5031658;28;20671;-84
2021/10/17 01:32:36;;;;;;;17.45;9.65;;;6.10;96.20;;;3.66;100.00;101056.47;5031376;28;20053;-84
2021/10/17 01:35:05;;;;;;;17.80;10.05;;;6.10;96.20;;;3.64;100.00;101062.97;5031547;28;20079;-84
2021/10/17 01:37:34;;;;;;;20.00;10.60;;;6.10;96.30;;;3.57;100.00;101053.69;5031160;28;20045;-84
2021/10/17 01:40:01;;;;;;;20.02;10.73;;;6.10;96.20;;;3.59;100.00;101049.88;5031386;28;20045;-84
2021/10/17 01:42:31;;;;;;;20.10;10.88;;;6.00;96.10;;;3.62;100.00;101056.88;5031490;28;20071;-84
2021/10/17 01:44:59;;;;;;;19.02;11.05;;;6.00;96.20;;;3.57;100.00;101057.22;5031561;28;20073;-83
2021/10/17 01:47:27;;;;;;;22.55;11.35;;;6.00;96.20;;;3.60;100.00;101042.66;5049320;28;20048;-84
2021/10/17 01:49:56;;;;;;;20.95;9.88;;;6.00;96.20;;;3.64;100.00;101046.84;5031366;28;20135;-84
2021/10/17 01:52:23;;;;;;;23.13;11.13;;;6.00;96.10;;;3.66;100.00;101047.56;5031330;28;20052;-84
2021/10/17 01:54:53;;;;;;;18.90;10.07;;;6.00;96.10;;;3.62;100.00;101038.88;5031307;28;20676;-84
2021/10/17 01:57:25;;;;;;;19.17;10.35;;;5.90;96.20;;;3.62;100.00;101048.81;5049136;28;20134;-84
2021/10/17 01:59:53;;;;;;;18.33;9.85;;;6.00;96.20;;;3.67;100.00;101030.41;5030895;28;20040;-84
2021/10/17 02:02:40;;;;;;;17.35;10.00;;;5.90;96.20;;;3.68;100.00;101032.13;5048838;28;20063;-84
2021/10/17 02:05:11;;;;;;;19.42;10.35;;;5.90;96.40;;;3.68;100.00;101035.66;5031391;28;20512;-84
2021/10/17 02:07:41;;;;;;;18.50;10.30;;;5.90;96.40;;;3.64;100.00;101031.53;5030975;28;20055;-83
2021/10/17 02:10:12;;;;;;;23.15;10.13;;;5.90;96.40;;;3.71;100.00;101029.16;5047492;28;20509;-84
2021/10/17 02:12:40;;;;;;;17.02;9.57;;;5.90;96.40;;;3.71;100.00;101021.97;5031052;28;20064;-83
2021/10/17 02:15:09;;;;;;;19.45;10.18;;;5.90;96.50;;;3.68;100.00;101027.59;5030907;28;20139;-83
2021/10/17 02:17:36;;;;;;;21.95;10.02;;;5.90;96.60;;;3.63;100.00;101026.28;5030644;28;20049;-83
2021/10/17 02:20:05;;;;;;;19.02;10.35;;;5.90;96.70;;;3.62;100.00;101014.66;5030809;28;20060;-83
2021/10/17 02:22:33;;;;;;;16.08;9.60;;;5.90;96.60;;;3.65;100.00;101021.59;5030987;28;20155;-83
2021/10/17 02:25:01;;;;;;;20.15;9.80;;;6.00;96.70;;;3.74;100.00;101023.53;5030722;28;20040;-83
2021/10/17 02:27:30;;;;;;;19.27;10.20;;;6.00;96.70;;;3.81;100.00;101015.78;5030714;28;20143;-83
2021/10/17 02:29:57;;;;;;;17.13;9.85;;;6.00;96.90;;;3.84;100.00;101010.16;5027606;28;20106;-83
2021/10/17 02:32:30;;;;;;;23.13;10.93;;;6.00;96.90;;;3.88;100.00;101011.59;5030953;28;20076;-83
2021/10/17 02:35:07;;;;;;;22.20;9.40;;;6.00;97.00;;;3.98;100.00;101006.31;5030844;28;20535;-83
2021/10/17 02:37:34;;;;;;;15.55;9.95;;;6.00;97.10;;;4.03;100.00;101009.47;5029783;28;20076;-83
2021/10/17 02:40:05;;;;;;;18.23;9.80;;;6.00;97.20;;;4.04;100.00;101009.34;5030790;28;20552;-83
2021/10/17 02:42:35;;;;;;;23.95;9.65;;;6.00;97.40;;;4.06;100.00;100999.28;5030802;28;20057;-84
2021/10/17 02:45:02;;;;;;;22.52;10.75;;;6.10;97.60;;;4.03;100.00;100998.69;5030537;28;20130;-83
2021/10/17 02:47:29;;;;;;;16.15;8.95;;;6.10;97.70;;;4.05;100.00;101004.81;5030402;28;20053;-83
2021/10/17 02:49:58;;;;;;;14.70;8.45;;;6.10;97.60;;;4.11;100.00;101007.84;5030880;28;20068;-83
2021/10/17 02:52:27;;;;;;;21.67;8.95;;;6.10;97.70;;;4.17;100.00;101003.78;5030699;28;20106;-83
2021/10/17 02:54:55;;;;;;;20.05;9.32;;;6.20;97.60;;;4.19;100.00;101000.94;5030442;28;20148;-83
2021/10/17 02:57:22;;;;;;;20.60;8.90;;;6.20;97.70;;;4.21;100.00;100997.13;5030495;28;20041;-84
2021/10/17 02:59:51;;;;;;;16.23;8.80;;;6.20;97.80;;;4.25;100.00;101001.28;5048309;28;20045;-83
2021/10/17 03:02:18;;;;;;;17.92;8.70;;;6.20;97.80;;;4.33;100.00;100995.22;5027950;28;20456;-84
2021/10/17 03:04:45;;;;;;;16.23;8.55;;;6.30;98.00;;;4.26;100.00;100991.34;5030573;28;20080;-84
2021/10/17 03:07:13;;;;;;;17.90;9.23;;;6.30;98.00;;;4.28;100.00;100986.66;5030608;28;20053;-83
2021/10/17 03:10:01;;;;;;;21.55;9.65;;;6.30;97.90;;;4.32;100.00;100990.81;5030881;28;20126;-83
2021/10/17 03:12:28;;;;;;;15.55;8.25;;;6.40;97.80;;;4.40;100.00;100985.63;5030617;28;20049;-83
2021/10/17 03:15:00;;;;;;;17.63;8.93;;;6.40;97.80;;;4.40;100.00;100995.53;5030269;28;20518;-83
2021/10/17 03:17:27;;;;;;;13.75;7.82;;;6.40;97.90;;;4.48;100.00;100987.66;5030229;28;20045;-83
2021/10/17 03:19:54;;;;;;;13.55;8.77;;;6.40;97.90;;;4.51;100.00;100981.97;5030285;28;20468;-83
2021/10/17 03:22:24;;;;;;;16.08;8.68;;;6.50;98.10;;;4.54;100.00;100981.72;5030328;28;20434;-84
2021/10/17 03:24:51;;;;;;;19.50;9.50;;;6.50;97.90;;;4.58;100.00;100983.16;5030394;28;20472;-84
2021/10/17 03:27:19;;;;;;;21.05;9.05;;;6.50;97.90;;;4.64;100.00;100977.22;5030283;28;20053;-84
2021/10/17 03:29:51;;;;;;;16.30;8.18;;;6.50;97.90;;;4.64;100.00;100977.22;5030247;28;20166;-84
2021/10/17 03:32:21;;;;;;;15.77;8.20;;;6.60;98.00;;;4.66;100.00;100967.19;5030261;28;20095;-83
2021/10/17 03:34:50;;;;;;;16.67;8.40;;;6.60;98.00;;;4.74;100.00;100969.19;5030219;28;20045;-83
2021/10/17 03:37:19;;;;;;;16.20;8.73;;;6.70;98.10;;;4.72;100.00;100968.47;5030236;28;20531;-84
2021/10/17 03:39:46;;;;;;;19.08;8.63;;;6.70;98.00;;;4.73;100.00;100970.19;5030036;28;20045;-83
2021/10/17 03:42:14;;;;;;;15.25;8.07;;;6.70;98.10;;;4.73;100.00;100962.09;5030257;28;20568;-84
2021/10/17 03:44:43;;;;;;;14.98;8.02;;;6.70;98.10;;;4.69;100.00;100964.19;5030203;28;20041;-83
2021/10/17 03:47:10;;;;;;;17.17;8.07;;;6.70;98.10;;;4.78;100.00;100967.94;5030104;28;20107;-83
2021/10/17 03:49:40;;;;;;;14.73;7.78;;;6.70;98.10;;;4.77;100.00;100973.47;5031581;28;20072;-83
2021/10/17 03:52:07;;;;;;;18.35;8.40;;;6.80;98.30;;;4.81;100.00;100978.44;5033776;28;20083;-83
2021/10/17 03:54:35;;;;;;;19.02;8.25;;;6.80;98.30;;;4.87;100.00;100977.03;5033574;28;20041;-83
2021/10/17 03:57:03;;;;;;;13.65;8.00;;;6.80;98.20;;;4.87;100.00;100977.03;5033529;28;20091;-83
2021/10/17 03:59:31;;;;;;;14.88;7.78;;;6.90;98.30;;;4.86;100.00;100981.59;5051180;28;20524;-84
2021/10/17 04:01:58;;;;;;;17.67;8.40;;;6.90;98.30;;;4.90;100.00;100976.78;5033532;28;20055;-83
2021/10/17 04:04:25;;;;;;;16.73;8.77;;;6.90;98.20;;;4.92;100.00;100976.66;5033433;28;20053;-84
2021/10/17 04:06:54;;;;;;;13.07;7.55;;;6.90;98.30;;;5.01;100.00;100967.75;5033406;28;20056;-83
2021/10/17 04:09:27;;;;;;;19.85;7.97;;;7.00;98.40;;;5.08;100.00;100964.34;5033004;28;20131;-83
2021/10/17 04:11:55;;;;;;;15.35;7.70;;;7.10;98.60;;;5.18;100.00;100963.50;5033304;28;20139;-83
2021/10/17 04:14:23;;;;;;;19.83;7.72;;;7.00;98.50;;;5.26;100.00;100966.38;5033120;28;20045;-83
2021/10/17 04:16:50;;;;;;;15.13;8.05;;;7.00;98.60;;;5.27;100.00;100957.28;5033234;28;20048;-83
2021/10/17 04:19:17;;;;;;;13.15;7.30;;;7.00;98.90;;;5.23;100.00;100950.44;5032942;28;20536;-84
2021/10/17 04:21:45;;;;;;;15.23;8.25;;;7.10;99.00;;;5.20;100.00;100950.75;5033148;28;20081;-84
2021/10/17 04:24:13;;;;;;;20.27;7.78;;;7.20;98.90;;;5.14;100.00;100948.56;5033097;28;20098;-84
2021/10/17 04:26:41;;;;;;;17.58;8.90;;;7.20;98.90;;;5.20;100.00;100950.75;5029750;28;20410;-84
2021/10/17 04:29:11;;;;;;;13.27;7.78;;;7.20;98.80;;;5.15;100.00;100959.25;5032830;28;20076;-83
2021/10/17 04:31:38;;;;;;;16.33;7.38;;;7.20;98.90;;;5.20;100.00;100964.25;5051006;28;20069;-83
2021/10/17 04:34:06;;;;;;;15.43;7.32;;;7.20;98.80;;;5.27;100.00;100970.75;5032829;28;20048;-83
2021/10/17 04:36:33;;;;;;;15.63;7.88;;;7.20;99.00;;;5.29;100.00;100976.88;5032788;28;20485;-84
2021/10/17 04:39:01;;;;;;;16.08;7.20;;;7.30;99.00;;;5.33;100.00;100967.53;5032506;28;20045;-83
2021/10/17 04:41:30;;;;;;;18.13;8.13;;;7.30;99.10;;;5.34;100.00;100973.78;5032783;28;20049;-83
2021/10/17 04:43:57;;;;;;;17.40;8.93;;;7.30;99.00;;;5.36;100.00;100972.63;5032691;28;20467;-83
2021/10/17 04:46:24;;;;;;;25.92;9.63;;;7.30;99.00;;;5.46;100.00;100961.84;5032707;28;20061;-83
2021/10/17 04:48:52;;;;;;;13.80;7.53;;;7.40;99.00;;;5.53;100.00;100959.44;5032229;28;20045;-83
2021/10/17 04:51:19;;;;;;;19.20;8.70;;;7.40;99.20;;;5.55;100.00;100969.09;5032689;28;20134;-83
2021/10/17 04:53:46;;;;;;;16.17;8.15;;;7.40;99.30;;;5.58;100.00;100960.72;5032456;28;20045;-83
2021/10/17 04:56:13;;;;;;;15.40;8.38;;;7.40;99.40;;;5.61;100.00;100970.38;5030477;28;20091;-83
2021/10/17 04:58:42;;;;;;;15.90;7.55;;;7.40;99.40;;;5.62;100.00;100966.72;5032023;28;20102;-84
2021/10/17 05:01:10;;;;;;;17.55;7.65;;;7.40;99.70;;;5.63;100.00;100968.41;5031574;28;20114;-83
2021/10/17 05:03:38;;;;;;;15.80;8.15;;;7.50;99.90;;;5.63;100.00;100963.84;5032294;28;20056;-83
2021/10/17 05:06:06;;;;;;;16.02;8.70;;;7.50;99.90;;;5.55;100.00;100965.56;5032313;28;20045;-83
2021/10/17 05:08:34;;;;;;;15.55;9.13;;;7.50;99.80;;;5.49;100.00;100961.56;5031910;28;20520;-83
2021/10/17 05:11:01;;;;;;;16.02;7.90;;;7.60;99.90;;;5.53;100.00;100954.06;5032171;28;20053;-84
2021/10/17 05:13:29;;;;;;;15.27;7.75;;;7.60;99.90;;;5.61;100.00;100948.78;5032093;28;20045;-83
2021/10/17 05:15:58;;;;;;;16.77;8.52;;;7.60;99.90;;;5.68;100.00;100960.72;5032165;28;20056;-83
2021/10/17 05:18:25;;;;;;;15.60;8.38;;;7.60;99.90;;;5.68;100.00;100971.53;5031787;28;20041;-84
2021/10/17 05:20:58;;;;;;;15.45;7.85;;;7.60;99.90;;;5.67;100.00;100980.63;5031765;28;20074;-83
2021/10/17 05:23:25;;;;;;;18.40;7.82;;;7.70;99.90;;;5.69;100.00;100981.31;5032095;28;20518;-83
2021/10/17 05:25:53;;;;;;;15.25;7.88;;;7.70;99.90;;;5.72;100.00;100986.44;5031903;28;20048;-84
2021/10/17 05:28:20;;;;;;;17.33;9.05;;;7.70;99.90;;;5.71;100.00;100981.19;5031547;28;20080;-83
2021/10/17 05:30:48;;;;;;;21.67;9.10;;;7.70;99.90;;;5.70;100.00;100980.34;5031591;28;20799;-83
2021/10/17 05:33:17;;;;;;;19.95;8.57;;;7.80;99.90;;;5.73;100.00;100985.47;5031396;28;20057;-83
2021/10/17 05:35:45;;;;;;;16.05;7.70;;;7.80;99.90;;;5.76;100.00;100993.28;5031488;28;20126;-83
2021/10/17 05:38:13;;;;;;;17.95;7.82;;;7.80;99.90;;;5.82;100.00;100998.09;5031112;28;20094;-83
2021/10/17 05:40:40;;;;;;;22.83;8.13;;;7.80;99.90;;;5.87;100.00;101003.94;5031340;28;20052;-83
2021/10/17 05:43:07;;;;;;;16.55;8.40;;;7.80;99.90;;;5.80;100.00;101000.09;5031433;28;20139;-83
2021/10/17 05:45:35;;;;;;;15.25;8.85;;;7.80;99.90;;;5.74;100.00;100995.25;5031345;28;20131;-84
2021/10/17 05:48:03;;;;;;;15.30;8.52;;;7.80;99.90;;;5.77;100.00;100992.28;5031005;28;20064;-84
2021/10/17 05:50:35;;;;;;;22.20;8.63;;;7.80;99.90;;;5.86;100.00;100991.44;5031383;28;20094;-83
2021/10/17 05:53:04;;;;;;;24.17;8.57;;;7.90;99.90;;;5.94;100.00;100997.97;5031494;28;20065;-83
2021/10/17 05:55:32;;;;;;;18.75;9.05;;;7.90;99.90;;;6.00;100.00;101000.16;5031191;28;20804;-83
2021/10/17 05:58:00;;;;;;;16.55;8.88;;;7.90;99.90;;;5.92;100.00;100994.56;5031216;28;20053;-84
2021/10/17 06:00:29;;;;;;;13.82;8.05;;;8.00;99.90;;;5.94;100.00;100993.44;5031154;28;20123;-83
2021/10/17 06:03:00;;;;;;;20.08;9.15;;;8.00;99.90;;;6.02;100.00;100990.03;5031197;28;20082;-83
2021/10/17 06:05:32;;;;;;;21.58;9.07;;;8.00;99.90;;;6.03;100.00;100986.34;5031293;28;20049;-83
2021/10/17 06:08:01;;;;;;;17.15;8.10;;;8.00;99.90;;;6.08;100.00;100989.47;5030894;28;20044;-83
2021/10/17 06:10:30;;;;;;;21.03;9.30;;;8.00;99.90;;;6.14;100.00;101005.09;5031102;28;20072;-83
2021/10/17 06:12:58;;;;;;;15.32;8.00;;;8.00;99.90;;;6.07;100.00;101001.25;5030916;28;20796;-83
2021/10/17 06:15:26;;;;;;;19.00;9.77;;;8.10;99.90;;;6.06;100.00;101004.97;5030941;28;20049;-83
2021/10/17 06:17:53;;;;;;;17.50;9.93;;;8.10;99.90;;;6.06;100.00;101003.13;5030777;28;20179;-84
2021/10/17 06:20:21;;;;;;;23.92;9.57;;;8.10;99.90;;;6.04;100.00;101001.56;5033704;28;20049;-84
2021/10/17 06:22:56;;;;;;;16.00;9.20;;;8.10;99.90;;;6.08;100.00;101000.28;5032630;28;20448;-84
2021/10/17 06:25:25;;;;;;;16.63;8.68;;;8.20;99.90;;;6.19;100.00;101001.97;5063358;28;20122;-83
2021/10/17 06:27:53;;;;;;;16.13;8.45;;;8.20;99.90;;;6.27;100.00;101010.22;5047041;28;20049;-83
2021/10/17 06:30:20;;;;;;;18.75;8.93;;;8.20;99.90;;;6.29;100.00;101010.91;5030587;28;20075;-84
2021/10/17 06:32:47;;;;;;;16.92;7.90;;;8.20;99.90;;;6.29;100.00;101012.78;5030333;28;20052;-83
2021/10/17 06:35:18;;;;;;;14.35;7.95;;;8.20;99.90;;;6.33;100.00;101014.19;5035629;28;20042;-83
2021/10/17 06:37:46;;;;;;;20.67;8.77;;;8.20;99.90;;;6.27;100.00;101015.63;5026958;28;20057;-84
2021/10/17 06:40:14;;;;;;;18.20;9.38;;;8.30;99.90;;;6.24;100.00;101015.91;5044370;28;20095;-84
2021/10/17 06:42:43;;;;;;;18.13;8.00;;;8.30;99.90;;;6.30;100.00;101017.16;5030952;28;20155;-84
2021/10/17 06:45:32;;;;;;;18.80;9.23;;;8.30;99.90;;;6.36;100.00;101027.41;5049019;28;20051;-84
2021/10/17 06:48:00;;;;;;;20.88;9.85;;;8.40;99.90;;;6.44;100.00;101031.09;5027303;28;20042;-84
2021/10/17 06:50:28;;;;;;;17.05;9.48;;;8.40;99.90;;;6.48;100.00;101028.97;5010705;28;20042;-84
2021/10/17 06:52:55;;;;;;;19.38;9.05;;;8.40;99.90;;;6.53;100.00;101036.63;5011424;28;20675;-84
2021/10/17 06:55:25;;;;;;;20.20;9.68;;;8.40;99.90;;;6.50;100.00;101037.78;5010768;28;20045;-84
2021/10/17 06:57:55;;;;;;;18.58;9.35;;;8.40;99.90;;;6.49;100.00;101037.91;5015303;28;20122;-84
2021/10/17 07:00:22;;;;;;;18.60;9.45;;;8.50;99.90;;;6.52;100.00;101034.94;5010682;28;20394;-84
2021/10/17 07:02:51;;;;;;;17.95;9.52;;;8.50;99.90;;;6.58;100.00;101040.59;5026885;28;20104;-84
2021/10/17 07:05:21;;;;;;;16.30;9.05;;;8.50;99.90;;;6.62;100.00;101041.16;5027145;28;20041;-84
2021/10/17 07:07:48;;;;;;;19.38;9.95;;;8.60;99.90;;;6.72;100.00;101042.00;5030847;28;20037;-84
2021/10/17 07:10:16;;;;;;;19.23;10.00;;;8.60;99.90;;;6.79;100.00;101047.66;5030307;28;20048;-83
2021/10/17 07:13:03;;;;;;;16.40;9.40;;;8.60;99.90;;;6.82;100.00;101052.78;5048887;28;20083;-83
2021/10/17 07:15:45;;;;;;;22.25;12.13;;;8.70;99.90;;;6.88;100.00;101056.75;5030249;28;20056;-84
2021/10/17 07:18:15;;;;;;;24.42;10.73;;;8.70;99.90;;;6.89;100.00;101053.88;5030021;28;20136;-83
2021/10/17 07:20:43;;;;;;;23.35;10.38;;;8.70;99.90;;;6.90;100.00;101054.75;5030354;28;20053;-83
2021/10/17 07:23:10;;;;;;;20.83;11.30;;;8.70;99.90;;;6.90;100.00;101049.34;5026380;28;20041;-85
2021/10/17 07:25:37;;;;;;;24.35;11.10;;;8.70;99.90;;;6.91;100.00;101048.34;5030681;28;20140;-84
2021/10/17 07:28:06;;;;;;;25.67;11.40;;;8.80;99.90;;;6.95;100.00;101042.50;5013721;28;20115;-84
2021/10/17 07:30:44;;;;;;;22.30;10.95;;;8.80;99.90;;;7.04;100.00;101046.16;5030493;28;20141;-83
2021/10/17 07:33:12;;;;;;;21.88;10.65;;;8.80;99.90;;;7.11;100.00;101043.72;5030623;28;20057;-83
2021/10/17 07:35:39;;;;;;;19.48;10.77;;;8.90;99.90;;;7.19;100.00;101050.06;5030485;28;20656;-83
2021/10/17 07:38:06;;;;;;;24.05;10.00;;;8.90;99.90;;;7.23;100.00;101056.91;5013562;28;20053;-84
2021/10/17 07:40:35;;;;;;;18.75;10.52;;;8.90;99.90;;;7.20;100.00;101059.06;5014710;28;20096;-84
2021/10/17 07:43:02;;;;;;;24.95;11.48;;;9.00;99.90;;;7.23;100.00;101067.75;5030361;28;20049;-84
2021/10/17 07:45:32;;;;;;;21.73;11.73;;;9.00;99.90;;;7.25;100.00;101064.88;5030402;28;20045;-85
2021/10/17 07:48:00;;;;;;;23.63;10.75;;;9.00;99.90;;;7.32;100.00;101059.72;5013693;28;20160;-85
2021/10/17 07:50:28;;;;;;;24.45;11.38;;;9.10;99.90;;;7.34;100.00;101058.56;5030208;28;20053;-86
2021/10/17 07:52:55;;;;;;;24.17;10.98;;;9.10;99.90;;;7.43;100.00;101056.81;5013597;28;20088;-85
2021/10/17 07:55:31;;;;;;;18.92;10.82;;;9.20;99.90;;;7.56;100.00;101061.88;5031296;28;20053;-85
2021/10/17 07:58:01;;;;;;;22.63;11.63;;;9.20;99.90;;;7.67;100.00;101052.66;5037251;28;20099;-84
2021/10/17 08:00:51;;;;;;;22.55;10.80;;;9.30;99.90;;;7.76;100.00;101052.59;5033339;28;20052;-83
2021/10/17 08:03:37;;;;;;;21.77;10.82;;;9.30;99.90;;;7.87;100.00;101058.81;5051224;28;20409;-85
2021/10/17 08:06:27;;;;;;;21.27;9.50;;;9.40;99.90;;;7.90;100.00;101053.09;5042485;28;20477;-85
2021/10/17 08:08:54;;;;;;;18.90;9.60;;;9.40;99.90;;;7.86;100.00;101055.25;5032771;28;20061;-83
2021/10/17 08:11:23;;;;;;;21.42;9.65;;;9.50;99.90;;;7.93;100.00;101058.22;5031302;28;20045;-84
2021/10/17 08:13:51;;;;;;;23.08;10.73;;;9.50;99.90;;;8.01;100.00;101058.28;5032710;28;20457;-84
2021/10/17 08:16:26;;;;;;;20.35;9.52;;;9.60;99.90;;;8.04;100.00;101060.69;5032673;28;20057;-82
2021/10/17 08:18:58;;;;;;;20.02;10.32;;;9.60;99.90;;;8.11;100.00;101059.06;5030913;28;20067;-84
2021/10/17 08:21:26;;;;;;;20.10;9.30;;;9.60;99.90;;;8.17;100.00;101055.72;5031328;28;20044;-84
2021/10/17 08:24:06;;;;;;;20.80;10.20;;;9.70;99.90;;;8.29;100.00;101052.78;5031032;28;20057;-83
2021/10/17 08:26:40;;;;;;;20.08;9.90;;;9.70;99.90;;;8.34;100.00;101055.84;5029439;28;20051;-83
2021/10/17 08:29:11;;;;;;;25.13;10.30;;;9.80;99.90;;;8.44;100.00;101056.66;5030646;28;20045;-82
2021/10/17 08:31:40;;;;;;;22.98;9.45;;;9.80;99.90;;;8.50;100.00;101060.63;5031027;28;20067;-84
2021/10/17 08:34:11;;;;;;;20.75;8.93;;;9.90;99.90;;;8.58;100.00;101057.94;5032464;28;20393;-84
2021/10/17 08:36:40;;;;;;;21.88;8.30;;;10.00;99.90;;;8.66;100.00;101065.28;5031233;28;20045;-84
2021/10/17 08:39:11;;;;;;;19.10;8.20;;;10.00;99.90;;;8.75;100.00;101067.06;5032163;28;20048;-84
2021/10/17 08:41:45;;;;;;;17.98;8.13;;;10.10;99.90;;;8.83;100.00;101063.56;5029668;28;20049;-84
2021/10/17 08:44:16;;;;;;;17.90;7.73;;;10.10;99.90;;;8.89;100.00;101066.50;5014818;28;20041;-84
2021/10/17 08:47:04;;;;;;;15.30;7.32;;;10.20;99.90;;;8.97;100.00;101068.41;5012317;28;20366;-85
2021/10/17 08:49:36;;;;;;;19.27;7.40;;;10.30;99.90;;;9.04;100.00;101066.72;5028524;28;20573;-85
2021/10/17 08:52:10;;;;;;;18.30;7.28;;;10.30;99.90;;;9.08;100.00;101068.13;5012437;28;20406;-85
2021/10/17 08:54:39;;;;;;;21.35;7.63;;;10.40;99.90;;;9.16;100.00;101061.88;5012479;28;20816;-85
2021/10/17 08:57:10;;;;;;;14.38;6.75;;;10.50;99.90;;;9.24;100.00;101066.50;5012331;28;20050;-85
2021/10/17 08:59:38;;;;;;;19.00;6.53;;;10.50;99.90;;;9.29;100.00;101067.72;5031549;28;20053;-85
2021/10/17 09:02:14;;;;;;;14.25;6.13;;;10.50;99.90;;;9.36;100.00;101063.31;5022866;28;20045;-84
2021/10/17 09:04:45;;;;;;;14.93;6.00;;;10.60;99.80;;;9.43;100.00;101063.53;5012737;28;20067;-85
2021/10/17 09:07:24;;;;;;;17.05;5.93;;;10.60;99.60;;;9.43;99.01;101057.25;5011912;28;20049;-84
2021/10/17 09:10:14;;;;;;;18.00;5.50;;;10.70;99.80;;;9.49;98.83;101056.59;5012126;28;20037;-84
2021/10/17 09:12:43;;;;;;;18.60;5.80;;;10.80;99.20;;;9.54;98.66;101060.53;5030005;28;20524;-84
2021/10/17 09:15:27;;;;;;;17.15;5.95;;;10.80;98.80;;;9.58;98.51;101058.34;5030397;28;20081;-85
2021/10/17 09:18:14;;;;;;;15.05;6.10;;;10.80;98.90;;;9.69;97.97;101052.59;5029701;28;20248;-83
2021/10/17 09:20:58;;;;;;;12.90;5.30;;;10.90;98.50;;;9.74;96.04;101055.63;5029877;28;20037;-84
2021/10/17 09:23:42;;;;;;;12.18;5.05;;;10.90;96.90;;;9.82;95.87;101051.25;5030036;28;20180;-84
2021/10/17 09:26:18;;;;;;;14.65;5.50;;;11.00;97.80;;;9.85;96.56;101046.34;5029997;28;20103;-86
2021/10/17 09:28:46;;;;;;;22.65;7.07;;;11.00;98.00;;;9.91;96.72;101056.53;5030352;28;20045;-84
2021/10/17 09:31:17;;;;;;;16.25;5.38;;;11.10;98.20;;;9.95;96.40;101055.16;5038686;28;20048;-86
2021/10/17 09:33:49;;;;;;;17.52;5.18;;;11.10;98.20;;;10.03;95.21;101056.22;5037481;28;20119;-84
2021/10/17 09:36:28;;;;;;;19.40;5.25;;;11.20;96.80;;;10.10;94.64;101060.81;5011821;28;20053;-84
2021/10/17 09:39:13;;;;;;;16.70;5.70;;;11.20;96.90;;;10.18;93.98;101051.81;5029305;28;20317;-84
2021/10/17 09:42:00;;;;;;;13.98;5.82;;;11.30;96.70;;;10.26;94.06;101059.13;5029678;28;20056;-84
2021/10/17 09:44:38;;;;;;;12.07;4.95;;;11.30;96.60;;;10.31;94.21;101052.19;5012619;28;20048;-84
2021/10/17 09:47:06;;;;;;;16.75;5.40;;;11.40;96.80;;;10.38;94.00;101055.09;5029182;28;20379;-83
2021/10/17 09:49:36;;;;;;;14.98;5.50;;;11.50;96.50;;;10.43;93.75;101052.69;5028972;28;20121;-84
2021/10/17 09:52:18;;;;;;;15.32;6.18;;;11.50;96.20;;;10.48;94.19;101050.31;5029273;28;20052;-84
2021/10/17 09:54:48;;;;;;;13.63;5.25;;;11.60;96.60;;;10.52;91.73;101053.53;5029359;28;20045;-84
2021/10/17 09:57:17;;;;;;;12.85;5.45;;;11.60;96.00;;;10.55;92.85;101040.44;5029244;28;20045;-84
2021/10/17 09:59:44;;;;;;;11.57;4.53;;;11.70;95.60;;;10.62;92.19;101042.47;5029861;28;20036;-84
2021/10/17 10:02:14;;;;;;;12.95;5.25;;;11.70;95.20;;;10.70;92.33;101037.00;5029214;28;20580;-84
2021/10/17 10:04:46;;;;;;;12.02;5.00;;;11.70;95.10;;;10.76;90.44;101044.50;5028961;28;20047;-84
2021/10/17 10:07:22;;;;;;;12.98;4.90;;;11.80;94.70;;;10.86;90.14;101044.31;5027718;28;20149;-84
2021/10/17 10:09:50;;;;;;;12.85;4.78;;;11.80;94.10;;;10.92;88.83;101049.06;5029013;28;20139;-84
2021/10/17 10:12:20;;;;;;;11.82;4.80;;;11.90;94.40;;;11.00;89.26;101045.47;5029043;28;20053;-84
2021/10/17 10:14:48;;;;;;;14.98;5.25;;;12.00;94.10;;;11.07;89.69;101047.31;5028995;28;20049;-84
2021/10/17 10:17:17;;;;;;;11.25;4.57;;;12.00;94.00;;;11.12;89.68;101047.66;5029894;28;20069;-84
2021/10/17 10:19:46;;;;;;;13.63;5.20;;;12.10;93.80;;;11.19;87.97;101045.06;5027300;28;20068;-84
2021/10/17 10:22:16;;;;;;;18.25;5.78;;;12.10;92.20;;;11.26;88.02;101046.06;5011033;28;20055;-84